Attica, Indiana
Current Conditions -  °F | °C
As of 2:54 AM on Sunday 23 Nov 2014 (Local Time) from KLAF Reporting Station
Overcast Overcast  
Wind Chill: 44°   Ceiling: 4400
Heat Index: 47°   Visibility: 10mi
Dew Point: 44°   Wind: 6mph
Humidity: 90%   Direction: 160°SSE
Pressure: 29.91"   Gusts: NA
Location:  40.29°N, 87.25°W
Report Text: KLAF 230754Z AUTO 16005KT 10SM OVC044 08/07 A2991 RMK AO2 RAE51 SLP128 P0002 T00830067 TSNO
Loading
Personal Weather Stations






























Interactive Weather Map New forecast layout! Learn more

10-Day Weather Forecast

Advertisements
Track Severe Weather on mobile